sensor_id;sensor_type;location;lat;lon;timestamp;pressure;altitude;pressure_sealevel;temperature;humidity
63535;BME280;55128;50.230;18.944;2023-05-19T00:05:00;99379.44;;;8.70;82.23
63535;BME280;55128;50.230;18.944;2023-05-19T00:10:01;99390.38;;;8.91;82.07
63535;BME280;55128;50.230;18.944;2023-05-19T00:15:02;99395.47;;;8.99;81.68
63535;BME280;55128;50.230;18.944;2023-05-19T00:20:03;99383.84;;;9.03;81.02
63535;BME280;55128;50.230;18.944;2023-05-19T00:25:06;99371.78;;;8.92;82.44
63535;BME280;55128;50.230;18.944;2023-05-19T00:30:07;99368.31;;;8.90;82.84
63535;BME280;55128;50.230;18.944;2023-05-19T00:35:08;99363.19;;;8.84;83.68
63535;BME280;55128;50.230;18.944;2023-05-19T00:40:09;99364.97;;;8.84;83.28
63535;BME280;55128;50.230;18.944;2023-05-19T00:45:09;99356.09;;;8.86;83.94
63535;BME280;55128;50.230;18.944;2023-05-19T00:50:10;99356.16;;;8.83;83.79
63535;BME280;55128;50.230;18.944;2023-05-19T00:55:10;99358.13;;;8.77;84.92
63535;BME280;55128;50.230;18.944;2023-05-19T01:00:12;99350.75;;;8.88;84.27
63535;BME280;55128;50.230;18.944;2023-05-19T01:05:12;99344.25;;;9.00;83.49
63535;BME280;55128;50.230;18.944;2023-05-19T01:10:13;99333.84;;;8.93;83.65
63535;BME280;55128;50.230;18.944;2023-05-19T01:15:13;99327.75;;;8.90;83.93
63535;BME280;55128;50.230;18.944;2023-05-19T01:20:22;99322.22;;;8.65;85.34
63535;BME280;55128;50.230;18.944;2023-05-19T01:25:44;99323.97;;;8.66;85.33
63535;BME280;55128;50.230;18.944;2023-05-19T01:30:57;99329.34;;;8.63;85.63
63535;BME280;55128;50.230;18.944;2023-05-19T01:35:59;99322.66;;;8.82;84.94
63535;BME280;55128;50.230;18.944;2023-05-19T01:41:02;99322.09;;;8.71;85.25
63535;BME280;55128;50.230;18.944;2023-05-19T01:46:04;99316.03;;;8.66;85.83
63535;BME280;55128;50.230;18.944;2023-05-19T01:51:05;99315.69;;;8.78;85.24
63535;BME280;55128;50.230;18.944;2023-05-19T01:56:06;99318.50;;;8.72;85.95
63535;BME280;55128;50.230;18.944;2023-05-19T02:11:46;99312.22;;;8.76;85.99
63535;BME280;55128;50.230;18.944;2023-05-19T02:16:51;99301.31;;;8.88;85.52
63535;BME280;55128;50.230;18.944;2023-05-19T02:21:51;99287.09;;;8.91;85.36
63535;BME280;55128;50.230;18.944;2023-05-19T02:26:52;99293.25;;;8.91;84.65
63535;BME280;55128;50.230;18.944;2023-05-19T02:31:53;99291.66;;;8.86;85.67
63535;BME280;55128;50.230;18.944;2023-05-19T02:36:53;99292.88;;;8.74;86.49
63535;BME280;55128;50.230;18.944;2023-05-19T02:41:53;99295.59;;;9.02;85.79
63535;BME280;55128;50.230;18.944;2023-05-19T02:46:54;99291.34;;;8.97;85.89
63535;BME280;55128;50.230;18.944;2023-05-19T02:51:54;99313.03;;;9.11;84.71
63535;BME280;55128;50.230;18.944;2023-05-19T02:56:54;99303.25;;;9.13;84.67
63535;BME280;55128;50.230;18.944;2023-05-19T03:01:58;99287.16;;;9.19;84.40
63535;BME280;55128;50.230;18.944;2023-05-19T03:06:59;99288.81;;;9.23;84.37
63535;BME280;55128;50.230;18.944;2023-05-19T03:12:01;99294.38;;;9.14;85.08
63535;BME280;55128;50.230;18.944;2023-05-19T03:17:03;99303.66;;;9.29;84.57
63535;BME280;55128;50.230;18.944;2023-05-19T03:22:06;99303.81;;;9.24;84.44
63535;BME280;55128;50.230;18.944;2023-05-19T03:27:06;99293.78;;;9.34;84.36
63535;BME280;55128;50.230;18.944;2023-05-19T03:32:07;99292.38;;;9.22;85.20
63535;BME280;55128;50.230;18.944;2023-05-19T03:37:07;99284.66;;;9.14;85.52
63535;BME280;55128;50.230;18.944;2023-05-19T03:42:09;99300.38;;;9.21;85.01
63535;BME280;55128;50.230;18.944;2023-05-19T03:47:10;99303.59;;;9.30;83.97
63535;BME280;55128;50.230;18.944;2023-05-19T03:52:10;99308.69;;;9.38;83.80
63535;BME280;55128;50.230;18.944;2023-05-19T03:57:13;99318.75;;;9.55;83.11
63535;BME280;55128;50.230;18.944;2023-05-19T04:02:13;99319.66;;;9.56;82.06
63535;BME280;55128;50.230;18.944;2023-05-19T04:07:13;99317.66;;;9.62;83.14
63535;BME280;55128;50.230;18.944;2023-05-19T04:12:14;99327.59;;;9.56;82.47
63535;BME280;55128;50.230;18.944;2023-05-19T04:17:14;99313.41;;;9.57;81.92
63535;BME280;55128;50.230;18.944;2023-05-19T04:22:15;99324.59;;;9.66;82.88
63535;BME280;55128;50.230;18.944;2023-05-19T04:27:15;99315.66;;;9.70;81.87
63535;BME280;55128;50.230;18.944;2023-05-19T04:32:16;99316.66;;;9.66;81.50
63535;BME280;55128;50.230;18.944;2023-05-19T04:37:17;99313.09;;;9.67;81.11
63535;BME280;55128;50.230;18.944;2023-05-19T04:42:19;99318.44;;;9.66;81.87
63535;BME280;55128;50.230;18.944;2023-05-19T04:47:19;99318.13;;;9.77;81.33
63535;BME280;55128;50.230;18.944;2023-05-19T04:52:20;99312.09;;;9.71;81.28
63535;BME280;55128;50.230;18.944;2023-05-19T04:57:21;99319.13;;;9.72;81.35
63535;BME280;55128;50.230;18.944;2023-05-19T05:02:21;99320.78;;;9.77;81.82
63535;BME280;55128;50.230;18.944;2023-05-19T05:07:22;99323.75;;;9.94;81.31
63535;BME280;55128;50.230;18.944;2023-05-19T05:12:23;99325.00;;;10.10;80.47
63535;BME280;55128;50.230;18.944;2023-05-19T05:17:24;99318.56;;;10.18;80.62
63535;BME280;55128;50.230;18.944;2023-05-19T05:22:25;99331.13;;;10.39;80.00
63535;BME280;55128;50.230;18.944;2023-05-19T05:27:25;99322.44;;;10.34;79.88
63535;BME280;55128;50.230;18.944;2023-05-19T05:32:26;99336.00;;;10.53;79.81
63535;BME280;55128;50.230;18.944;2023-05-19T05:37:26;99341.19;;;10.56;78.81
63535;BME280;55128;50.230;18.944;2023-05-19T05:42:27;99346.13;;;10.67;79.46
63535;BME280;55128;50.230;18.944;2023-05-19T05:47:27;99331.88;;;10.69;79.40
63535;BME280;55128;50.230;18.944;2023-05-19T05:52:29;99343.69;;;10.86;78.46
63535;BME280;55128;50.230;18.944;2023-05-19T05:57:30;99349.91;;;10.60;78.76
63535;BME280;55128;50.230;18.944;2023-05-19T06:02:30;99356.44;;;10.76;79.18
63535;BME280;55128;50.230;18.944;2023-05-19T06:07:31;99350.03;;;10.82;78.86
63535;BME280;55128;50.230;18.944;2023-05-19T06:12:32;99357.31;;;11.02;78.08
63535;BME280;55128;50.230;18.944;2023-05-19T06:17:33;99347.97;;;11.15;77.54
63535;BME280;55128;50.230;18.944;2023-05-19T06:22:36;99355.03;;;11.40;77.06
63535;BME280;55128;50.230;18.944;2023-05-19T06:27:37;99352.38;;;11.40;77.24
63535;BME280;55128;50.230;18.944;2023-05-19T06:32:37;99359.66;;;11.35;75.99
63535;BME280;55128;50.230;18.944;2023-05-19T06:37:37;99361.38;;;11.59;75.60
63535;BME280;55128;50.230;18.944;2023-05-19T06:42:38;99362.06;;;11.64;76.01
63535;BME280;55128;50.230;18.944;2023-05-19T06:47:38;99354.09;;;11.64;75.96
63535;BME280;55128;50.230;18.944;2023-05-19T06:52:41;99353.91;;;11.69;74.81
63535;BME280;55128;50.230;18.944;2023-05-19T06:57:42;99360.81;;;11.51;76.53
63535;BME280;55128;50.230;18.944;2023-05-19T07:02:42;99353.63;;;11.53;76.28
63535;BME280;55128;50.230;18.944;2023-05-19T07:07:43;99339.81;;;11.89;75.90
63535;BME280;55128;50.230;18.944;2023-05-19T07:12:43;99348.34;;;12.21;73.93
63535;BME280;55128;50.230;18.944;2023-05-19T07:17:43;99346.13;;;11.64;74.91
63535;BME280;55128;50.230;18.944;2023-05-19T07:22:44;99353.75;;;11.50;76.56
63535;BME280;55128;50.230;18.944;2023-05-19T07:27:44;99344.00;;;11.96;74.85
63535;BME280;55128;50.230;18.944;2023-05-19T07:32:45;99347.09;;;12.08;74.43
63535;BME280;55128;50.230;18.944;2023-05-19T07:37:45;99349.81;;;12.28;74.12
63535;BME280;55128;50.230;18.944;2023-05-19T07:42:47;99355.88;;;12.54;73.13
63535;BME280;55128;50.230;18.944;2023-05-19T07:47:48;99365.66;;;12.74;73.26
63535;BME280;55128;50.230;18.944;2023-05-19T07:52:48;99368.94;;;12.60;72.30
63535;BME280;55128;50.230;18.944;2023-05-19T07:57:49;99358.81;;;12.46;72.39
63535;BME280;55128;50.230;18.944;2023-05-19T08:02:50;99361.41;;;12.27;72.39
63535;BME280;55128;50.230;18.944;2023-05-19T08:07:51;99370.94;;;12.33;72.66
63535;BME280;55128;50.230;18.944;2023-05-19T08:12:52;99356.81;;;12.09;73.76
63535;BME280;55128;50.230;18.944;2023-05-19T08:17:52;99376.75;;;12.20;73.76
63535;BME280;55128;50.230;18.944;2023-05-19T08:22:53;99369.56;;;12.44;73.37
63535;BME280;55128;50.230;18.944;2023-05-19T08:27:53;99370.66;;;12.81;72.43
63535;BME280;55128;50.230;18.944;2023-05-19T08:32:53;99381.09;;;12.45;73.29
63535;BME280;55128;50.230;18.944;2023-05-19T08:37:54;99378.06;;;12.75;73.21
63535;BME280;55128;50.230;18.944;2023-05-19T08:42:54;99369.19;;;12.95;72.15
63535;BME280;55128;50.230;18.944;2023-05-19T08:47:54;99376.66;;;12.87;71.23
63535;BME280;55128;50.230;18.944;2023-05-19T08:53:21;99379.31;;;13.07;71.55
63535;BME280;55128;50.230;18.944;2023-05-19T08:58:22;99364.56;;;13.39;70.29
63535;BME280;55128;50.230;18.944;2023-05-19T09:03:23;99374.91;;;13.47;69.85
63535;BME280;55128;50.230;18.944;2023-05-19T09:08:25;99377.97;;;13.17;71.25
63535;BME280;55128;50.230;18.944;2023-05-19T09:13:25;99374.47;;;13.56;69.80
63535;BME280;55128;50.230;18.944;2023-05-19T09:18:26;99377.09;;;13.77;69.38
63535;BME280;55128;50.230;18.944;2023-05-19T09:23:28;99381.03;;;13.68;69.21
63535;BME280;55128;50.230;18.944;2023-05-19T09:28:30;99385.03;;;13.78;69.58
63535;BME280;55128;50.230;18.944;2023-05-19T09:33:40;99385.59;;;14.04;67.72
63535;BME280;55128;50.230;18.944;2023-05-19T09:38:44;99380.28;;;13.85;67.63
63535;BME280;55128;50.230;18.944;2023-05-19T09:43:53;99372.50;;;14.17;67.90
63535;BME280;55128;50.230;18.944;2023-05-19T09:48:57;99384.09;;;13.98;68.21
63535;BME280;55128;50.230;18.944;2023-05-19T09:53:59;99377.31;;;13.91;67.39
63535;BME280;55128;50.230;18.944;2023-05-19T09:59:01;99370.16;;;13.92;68.33
63535;BME280;55128;50.230;18.944;2023-05-19T10:04:02;99362.97;;;14.30;67.32
63535;BME280;55128;50.230;18.944;2023-05-19T10:09:03;99369.97;;;14.33;67.46
63535;BME280;55128;50.230;18.944;2023-05-19T10:14:04;99365.09;;;14.05;67.66
63535;BME280;55128;50.230;18.944;2023-05-19T10:19:06;99360.34;;;14.65;66.55
63535;BME280;55128;50.230;18.944;2023-05-19T10:24:08;99362.56;;;14.74;65.75
63535;BME280;55128;50.230;18.944;2023-05-19T10:29:09;99357.78;;;14.81;65.25
63535;BME280;55128;50.230;18.944;2023-05-19T10:39:24;99361.44;;;14.78;65.19
63535;BME280;55128;50.230;18.944;2023-05-19T10:44:39;99364.53;;;15.06;65.03
63535;BME280;55128;50.230;18.944;2023-05-19T10:49:40;99365.53;;;15.21;63.30
63535;BME280;55128;50.230;18.944;2023-05-19T10:54:42;99362.38;;;15.30;63.81
63535;BME280;55128;50.230;18.944;2023-05-19T10:59:45;99352.38;;;15.49;63.68
63535;BME280;55128;50.230;18.944;2023-05-19T11:04:47;99356.97;;;15.47;63.12
63535;BME280;55128;50.230;18.944;2023-05-19T11:09:53;99356.41;;;15.41;63.36
63535;BME280;55128;50.230;18.944;2023-05-19T11:14:53;99350.53;;;15.67;62.37
63535;BME280;55128;50.230;18.944;2023-05-19T11:19:55;99348.84;;;15.49;63.54
63535;BME280;55128;50.230;18.944;2023-05-19T11:24:56;99355.56;;;15.73;63.29
63535;BME280;55128;50.230;18.944;2023-05-19T11:35:07;99349.63;;;15.84;62.06
63535;BME280;55128;50.230;18.944;2023-05-19T11:40:09;99353.84;;;15.88;62.66
63535;BME280;55128;50.230;18.944;2023-05-19T11:45:10;99356.41;;;15.41;63.14
63535;BME280;55128;50.230;18.944;2023-05-19T11:50:10;99347.69;;;15.37;64.05
63535;BME280;55128;50.230;18.944;2023-05-19T11:55:18;99357.94;;;15.29;64.25
63535;BME280;55128;50.230;18.944;2023-05-19T12:00:22;99357.72;;;15.83;62.92
63535;BME280;55128;50.230;18.944;2023-05-19T12:05:24;99356.34;;;15.42;64.53
63535;BME280;55128;50.230;18.944;2023-05-19T12:10:29;99367.66;;;15.47;63.82
63535;BME280;55128;50.230;18.944;2023-05-19T12:15:30;99354.22;;;15.65;64.08
63535;BME280;55128;50.230;18.944;2023-05-19T12:20:31;99350.91;;;15.60;62.92
63535;BME280;55128;50.230;18.944;2023-05-19T12:25:34;99350.63;;;15.82;63.11
63535;BME280;55128;50.230;18.944;2023-05-19T12:30:34;99336.13;;;16.02;62.34
63535;BME280;55128;50.230;18.944;2023-05-19T12:35:36;99328.94;;;16.18;61.60
63535;BME280;55128;50.230;18.944;2023-05-19T12:40:36;99323.16;;;16.10;61.94
63535;BME280;55128;50.230;18.944;2023-05-19T12:45:38;99332.56;;;16.17;62.44
63535;BME280;55128;50.230;18.944;2023-05-19T12:50:39;99337.59;;;15.91;63.08
63535;BME280;55128;50.230;18.944;2023-05-19T12:55:44;99342.50;;;15.67;62.56
63535;BME280;55128;50.230;18.944;2023-05-19T13:00:45;99331.28;;;15.92;62.88
63535;BME280;55128;50.230;18.944;2023-05-19T13:05:49;99333.88;;;15.78;63.71
63535;BME280;55128;50.230;18.944;2023-05-19T13:10:50;99323.91;;;15.64;63.98
63535;BME280;55128;50.230;18.944;2023-05-19T13:15:50;99321.22;;;15.64;63.57
63535;BME280;55128;50.230;18.944;2023-05-19T13:20:51;99325.25;;;15.89;63.87
63535;BME280;55128;50.230;18.944;2023-05-19T13:25:52;99325.25;;;15.89;63.40
63535;BME280;55128;50.230;18.944;2023-05-19T13:30:52;99324.38;;;16.04;62.81
63535;BME280;55128;50.230;18.944;2023-05-19T13:35:52;99321.31;;;16.42;63.22
63535;BME280;55128;50.230;18.944;2023-05-19T13:40:53;99312.28;;;16.43;62.34
63535;BME280;55128;50.230;18.944;2023-05-19T13:45:53;99300.13;;;16.38;62.40
63535;BME280;55128;50.230;18.944;2023-05-19T13:50:54;99306.91;;;16.13;63.02
63535;BME280;55128;50.230;18.944;2023-05-19T13:55:54;99304.63;;;16.21;62.22
63535;BME280;55128;50.230;18.944;2023-05-19T14:00:55;99306.31;;;16.08;62.36
63535;BME280;55128;50.230;18.944;2023-05-19T14:05:58;99301.03;;;16.52;62.25
63535;BME280;55128;50.230;18.944;2023-05-19T14:10:58;99314.34;;;16.24;61.44
63535;BME280;55128;50.230;18.944;2023-05-19T14:16:00;99323.59;;;16.18;61.88
63535;BME280;55128;50.230;18.944;2023-05-19T14:21:00;99327.84;;;16.37;62.44
63535;BME280;55128;50.230;18.944;2023-05-19T14:26:00;99334.38;;;16.17;62.47
63535;BME280;55128;50.230;18.944;2023-05-19T14:31:01;99334.16;;;16.05;62.47
63535;BME280;55128;50.230;18.944;2023-05-19T14:36:01;99332.69;;;16.00;63.84
63535;BME280;55128;50.230;18.944;2023-05-19T14:41:02;99324.72;;;15.98;62.85
63535;BME280;55128;50.230;18.944;2023-05-19T14:46:03;99323.28;;;15.77;63.99
63535;BME280;55128;50.230;18.944;2023-05-19T14:51:03;99328.34;;;15.97;63.08
63535;BME280;55128;50.230;18.944;2023-05-19T14:56:04;99332.59;;;15.85;63.86
63535;BME280;55128;50.230;18.944;2023-05-19T15:01:04;99342.44;;;15.51;64.80
63535;BME280;55128;50.230;18.944;2023-05-19T15:06:10;99325.84;;;15.29;65.80
63535;BME280;55128;50.230;18.944;2023-05-19T15:11:11;99320.78;;;15.07;66.50
63535;BME280;55128;50.230;18.944;2023-05-19T15:16:11;99319.78;;;15.25;66.74
63535;BME280;55128;50.230;18.944;2023-05-19T15:21:11;99325.31;;;15.22;66.64
63535;BME280;55128;50.230;18.944;2023-05-19T15:26:12;99323.28;;;15.10;66.99
63535;BME280;55128;50.230;18.944;2023-05-19T15:31:12;99319.28;;;15.19;67.09
63535;BME280;55128;50.230;18.944;2023-05-19T15:36:13;99319.09;;;15.22;67.08
63535;BME280;55128;50.230;18.944;2023-05-19T15:41:15;99316.47;;;15.04;67.45
63535;BME280;55128;50.230;18.944;2023-05-19T15:46:15;99312.66;;;15.08;67.89
63535;BME280;55128;50.230;18.944;2023-05-19T15:51:18;99306.09;;;14.81;68.22
63535;BME280;55128;50.230;18.944;2023-05-19T15:56:19;99314.91;;;14.83;68.16
63535;BME280;55128;50.230;18.944;2023-05-19T16:01:20;99316.66;;;14.66;68.68
63535;BME280;55128;50.230;18.944;2023-05-19T16:06:21;99307.69;;;14.67;68.89
63535;BME280;55128;50.230;18.944;2023-05-19T16:11:21;99320.81;;;14.72;69.02
63535;BME280;55128;50.230;18.944;2023-05-19T16:16:22;99317.97;;;14.40;70.29
63535;BME280;55128;50.230;18.944;2023-05-19T16:21:22;99322.31;;;14.60;70.34
63535;BME280;55128;50.230;18.944;2023-05-19T16:26:23;99333.00;;;14.60;70.40
63535;BME280;55128;50.230;18.944;2023-05-19T16:31:23;99327.66;;;14.60;70.69
63535;BME280;55128;50.230;18.944;2023-05-19T16:36:23;99330.06;;;14.47;70.68
63535;BME280;55128;50.230;18.944;2023-05-19T16:41:24;99343.94;;;14.00;72.13
63535;BME280;55128;50.230;18.944;2023-05-19T16:46:25;99328.97;;;14.15;71.86
63535;BME280;55128;50.230;18.944;2023-05-19T16:51:25;99329.09;;;14.13;72.16
63535;BME280;55128;50.230;18.944;2023-05-19T16:56:26;99324.50;;;13.79;73.39
63535;BME280;55128;50.230;18.944;2023-05-19T17:01:26;99332.44;;;13.80;73.45
63535;BME280;55128;50.230;18.944;2023-05-19T17:06:27;99326.81;;;13.68;73.80
63535;BME280;55128;50.230;18.944;2023-05-19T17:11:27;99330.56;;;13.64;74.48
63535;BME280;55128;50.230;18.944;2023-05-19T17:16:27;99327.97;;;13.62;74.72
63535;BME280;55128;50.230;18.944;2023-05-19T17:21:28;99323.47;;;13.44;75.17
63535;BME280;55128;50.230;18.944;2023-05-19T17:26:28;99325.66;;;13.35;75.72
63535;BME280;55128;50.230;18.944;2023-05-19T17:31:28;99321.56;;;13.27;76.02
63535;BME280;55128;50.230;18.944;2023-05-19T17:36:29;99336.38;;;13.34;76.28
63535;BME280;55128;50.230;18.944;2023-05-19T17:41:30;99336.31;;;13.35;76.12
63535;BME280;55128;50.230;18.944;2023-05-19T17:46:30;99346.63;;;13.22;76.52
63535;BME280;55128;50.230;18.944;2023-05-19T17:51:33;99357.50;;;12.99;77.83
63535;BME280;55128;50.230;18.944;2023-05-19T17:56:40;99355.41;;;13.06;77.58
63535;BME280;55128;50.230;18.944;2023-05-19T18:01:43;99360.41;;;12.93;78.42
63535;BME280;55128;50.230;18.944;2023-05-19T18:06:44;99358.88;;;12.87;78.76
63535;BME280;55128;50.230;18.944;2023-05-19T18:11:47;99356.41;;;13.03;77.79
63535;BME280;55128;50.230;18.944;2023-05-19T18:16:47;99363.94;;;13.14;77.78
63535;BME280;55128;50.230;18.944;2023-05-19T18:21:52;99369.00;;;12.79;78.95
63535;BME280;55128;50.230;18.944;2023-05-19T18:26:53;99373.66;;;12.74;78.74
63535;BME280;55128;50.230;18.944;2023-05-19T18:31:54;99376.59;;;12.68;79.52
63535;BME280;55128;50.230;18.944;2023-05-19T18:36:54;99375.09;;;12.60;79.29
63535;BME280;55128;50.230;18.944;2023-05-19T18:41:55;99380.91;;;12.70;79.11
63535;BME280;55128;50.230;18.944;2023-05-19T18:46:55;99382.66;;;12.71;79.05
63535;BME280;55128;50.230;18.944;2023-05-19T18:51:56;99377.72;;;12.62;78.98
63535;BME280;55128;50.230;18.944;2023-05-19T18:56:57;99388.81;;;12.29;80.57
63535;BME280;55128;50.230;18.944;2023-05-19T19:01:58;99393.06;;;12.55;79.75
63535;BME280;55128;50.230;18.944;2023-05-19T19:06:58;99393.44;;;12.46;79.81
63535;BME280;55128;50.230;18.944;2023-05-19T19:11:58;99398.19;;;12.39;79.77
63535;BME280;55128;50.230;18.944;2023-05-19T19:16:59;99406.03;;;12.42;80.42
63535;BME280;55128;50.230;18.944;2023-05-19T19:21:59;99399.66;;;12.24;80.98
63535;BME280;55128;50.230;18.944;2023-05-19T19:27:00;99399.91;;;12.18;80.94
63535;BME280;55128;50.230;18.944;2023-05-19T19:32:00;99410.56;;;12.18;81.43
63535;BME280;55128;50.230;18.944;2023-05-19T19:37:00;99385.28;;;12.06;82.02
63535;BME280;55128;50.230;18.944;2023-05-19T19:42:01;99391.34;;;12.10;81.72
63535;BME280;55128;50.230;18.944;2023-05-19T19:47:04;99395.13;;;12.04;81.75
63535;BME280;55128;50.230;18.944;2023-05-19T19:52:05;99399.91;;;11.96;82.07
63535;BME280;55128;50.230;18.944;2023-05-19T19:57:05;99392.72;;;11.98;82.37
63535;BME280;55128;50.230;18.944;2023-05-19T20:02:06;99385.78;;;11.94;83.07
63535;BME280;55128;50.230;18.944;2023-05-19T20:07:09;99388.50;;;11.93;83.37
63535;BME280;55128;50.230;18.944;2023-05-19T20:12:09;99391.81;;;11.99;82.62
63535;BME280;55128;50.230;18.944;2023-05-19T20:17:10;99388.69;;;12.10;82.38
63535;BME280;55128;50.230;18.944;2023-05-19T20:22:10;99379.53;;;11.95;83.02
63535;BME280;55128;50.230;18.944;2023-05-19T20:27:11;99385.13;;;11.87;83.57
63535;BME280;55128;50.230;18.944;2023-05-19T20:32:11;99378.25;;;12.05;82.43
63535;BME280;55128;50.230;18.944;2023-05-19T20:37:11;99387.22;;;11.79;83.08
63535;BME280;55128;50.230;18.944;2023-05-19T20:42:12;99390.97;;;11.74;83.13
63535;BME280;55128;50.230;18.944;2023-05-19T20:47:13;99376.06;;;11.70;83.85
63535;BME280;55128;50.230;18.944;2023-05-19T20:52:14;99378.06;;;11.86;83.07
63535;BME280;55128;50.230;18.944;2023-05-19T20:57:18;99370.91;;;11.89;82.30
63535;BME280;55128;50.230;18.944;2023-05-19T21:02:18;99386.06;;;11.86;82.42
63535;BME280;55128;50.230;18.944;2023-05-19T21:07:20;99384.81;;;11.73;83.31
63535;BME280;55128;50.230;18.944;2023-05-19T21:12:20;99384.19;;;11.90;82.86
63535;BME280;55128;50.230;18.944;2023-05-19T21:17:26;99383.88;;;11.98;81.92
63535;BME280;55128;50.230;18.944;2023-05-19T21:22:27;99372.59;;;11.91;82.25
63535;BME280;55128;50.230;18.944;2023-05-19T21:27:29;99375.41;;;11.86;82.43
63535;BME280;55128;50.230;18.944;2023-05-19T21:32:31;99366.44;;;11.89;82.65
63535;BME280;55128;50.230;18.944;2023-05-19T21:37:32;99387.28;;;11.78;82.81
63535;BME280;55128;50.230;18.944;2023-05-19T21:42:33;99371.50;;;11.73;83.04
63535;BME280;55128;50.230;18.944;2023-05-19T21:47:33;99383.41;;;11.86;82.85
63535;BME280;55128;50.230;18.944;2023-05-19T21:52:33;99396.41;;;11.71;83.41
63535;BME280;55128;50.230;18.944;2023-05-19T21:57:35;99393.22;;;11.61;83.81
63535;BME280;55128;50.230;18.944;2023-05-19T22:02:36;99399.19;;;11.67;84.26
63535;BME280;55128;50.230;18.944;2023-05-19T22:07:36;99399.75;;;11.52;84.73
63535;BME280;55128;50.230;18.944;2023-05-19T22:12:37;99399.75;;;11.52;85.07
63535;BME280;55128;50.230;18.944;2023-05-19T22:17:37;99406.13;;;11.48;84.78
63535;BME280;55128;50.230;18.944;2023-05-19T22:22:38;99399.53;;;11.35;85.67
63535;BME280;55128;50.230;18.944;2023-05-19T22:27:38;99401.59;;;11.26;86.68
63535;BME280;55128;50.230;18.944;2023-05-19T22:32:38;99384.13;;;11.43;85.80
63535;BME280;55128;50.230;18.944;2023-05-19T22:37:39;99379.84;;;11.64;85.62
63535;BME280;55128;50.230;18.944;2023-05-19T22:42:39;99380.00;;;11.59;84.93
63535;BME280;55128;50.230;18.944;2023-05-19T22:47:40;99373.97;;;11.78;84.75
63535;BME280;55128;50.230;18.944;2023-05-19T22:52:40;99372.22;;;11.77;84.50
63535;BME280;55128;50.230;18.944;2023-05-19T22:57:40;99362.78;;;11.70;84.28
63535;BME280;55128;50.230;18.944;2023-05-19T23:02:41;99366.53;;;11.64;84.41
63535;BME280;55128;50.230;18.944;2023-05-19T23:07:41;99367.94;;;11.73;84.48
63535;BME280;55128;50.230;18.944;2023-05-19T23:12:41;99363.69;;;11.68;84.53
63535;BME280;55128;50.230;18.944;2023-05-19T23:17:42;99369.25;;;11.62;84.30
63535;BME280;55128;50.230;18.944;2023-05-19T23:22:42;99360.91;;;11.48;85.14
63535;BME280;55128;50.230;18.944;2023-05-19T23:27:43;99358.84;;;11.33;85.69
63535;BME280;55128;50.230;18.944;2023-05-19T23:32:43;99361.69;;;11.28;86.15
63535;BME280;55128;50.230;18.944;2023-05-19T23:37:43;99352.00;;;11.25;86.58
63535;BME280;55128;50.230;18.944;2023-05-19T23:42:44;99342.66;;;11.15;86.72
63535;BME280;55128;50.230;18.944;2023-05-19T23:47:44;99337.38;;;11.14;86.85
63535;BME280;55128;50.230;18.944;2023-05-19T23:52:47;99337.84;;;11.25;86.46
63535;BME280;55128;50.230;18.944;2023-05-19T23:57:47;99338.84;;;11.22;86.93
